sensor_id;sensor_type;location;lat;lon;timestamp;P1;durP1;ratioP1;P2;durP2;ratioP2
31043;SDS011;17710;52.520;13.352;2023-04-07T00:00:23;12.23;;;6.32;;
31043;SDS011;17710;52.520;13.352;2023-04-07T00:02:50;14.05;;;6.57;;
31043;SDS011;17710;52.520;13.352;2023-04-07T00:05:17;9.93;;;6.10;;
31043;SDS011;17710;52.520;13.352;2023-04-07T00:07:43;11.65;;;6.25;;
31043;SDS011;17710;52.520;13.352;2023-04-07T00:10:12;14.27;;;6.03;;
31043;SDS011;17710;52.520;13.352;2023-04-07T00:12:38;10.20;;;6.18;;
31043;SDS011;17710;52.520;13.352;2023-04-07T00:15:05;11.30;;;6.70;;
31043;SDS011;17710;52.520;13.352;2023-04-07T00:17:32;10.73;;;6.05;;
31043;SDS011;17710;52.520;13.352;2023-04-07T00:19:58;11.93;;;7.40;;
31043;SDS011;17710;52.520;13.352;2023-04-07T00:22:25;22.58;;;6.72;;
31043;SDS011;17710;52.520;13.352;2023-04-07T00:24:52;16.50;;;6.13;;
31043;SDS011;17710;52.520;13.352;2023-04-07T00:27:20;11.15;;;5.68;;
31043;SDS011;17710;52.520;13.352;2023-04-07T00:29:47;17.08;;;6.40;;
31043;SDS011;17710;52.520;13.352;2023-04-07T00:32:13;12.30;;;6.75;;
31043;SDS011;17710;52.520;13.352;2023-04-07T00:34:40;12.32;;;7.38;;
31043;SDS011;17710;52.520;13.352;2023-04-07T00:37:06;17.65;;;7.10;;
31043;SDS011;17710;52.520;13.352;2023-04-07T00:39:32;10.75;;;6.32;;
31043;SDS011;17710;52.520;13.352;2023-04-07T00:41:59;12.82;;;6.43;;
31043;SDS011;17710;52.520;13.352;2023-04-07T00:44:27;15.43;;;6.88;;
31043;SDS011;17710;52.520;13.352;2023-04-07T00:46:53;14.60;;;6.60;;
31043;SDS011;17710;52.520;13.352;2023-04-07T00:49:20;11.68;;;6.10;;
31043;SDS011;17710;52.520;13.352;2023-04-07T00:51:46;12.38;;;5.93;;
31043;SDS011;17710;52.520;13.352;2023-04-07T00:54:13;11.73;;;6.25;;
31043;SDS011;17710;52.520;13.352;2023-04-07T00:56:40;14.15;;;6.57;;
31043;SDS011;17710;52.520;13.352;2023-04-07T00:59:06;12.18;;;7.00;;
31043;SDS011;17710;52.520;13.352;2023-04-07T01:01:34;12.40;;;5.57;;
31043;SDS011;17710;52.520;13.352;2023-04-07T01:04:07;12.63;;;6.30;;
31043;SDS011;17710;52.520;13.352;2023-04-07T01:06:37;15.02;;;6.15;;
31043;SDS011;17710;52.520;13.352;2023-04-07T01:09:10;12.73;;;6.00;;
31043;SDS011;17710;52.520;13.352;2023-04-07T01:11:43;11.40;;;5.68;;
31043;SDS011;17710;52.520;13.352;2023-04-07T01:14:18;8.15;;;5.43;;
31043;SDS011;17710;52.520;13.352;2023-04-07T01:16:48;12.93;;;5.80;;
31043;SDS011;17710;52.520;13.352;2023-04-07T01:19:20;10.60;;;5.53;;
31043;SDS011;17710;52.520;13.352;2023-04-07T01:21:57;10.35;;;6.05;;
31043;SDS011;17710;52.520;13.352;2023-04-07T01:24:32;9.60;;;5.88;;
31043;SDS011;17710;52.520;13.352;2023-04-07T01:27:12;13.35;;;6.63;;
31043;SDS011;17710;52.520;13.352;2023-04-07T01:29:46;13.02;;;6.07;;
31043;SDS011;17710;52.520;13.352;2023-04-07T01:32:15;8.60;;;5.35;;
31043;SDS011;17710;52.520;13.352;2023-04-07T01:34:44;10.90;;;5.82;;
31043;SDS011;17710;52.520;13.352;2023-04-07T01:37:13;10.18;;;5.72;;
31043;SDS011;17710;52.520;13.352;2023-04-07T01:39:41;13.60;;;5.40;;
31043;SDS011;17710;52.520;13.352;2023-04-07T01:42:08;9.80;;;5.72;;
31043;SDS011;17710;52.520;13.352;2023-04-07T01:44:35;14.75;;;6.40;;
31043;SDS011;17710;52.520;13.352;2023-04-07T01:47:03;11.77;;;5.72;;
31043;SDS011;17710;52.520;13.352;2023-04-07T01:49:31;12.40;;;5.95;;
31043;SDS011;17710;52.520;13.352;2023-04-07T01:52:00;14.23;;;6.18;;
31043;SDS011;17710;52.520;13.352;2023-04-07T01:54:28;12.77;;;5.90;;
31043;SDS011;17710;52.520;13.352;2023-04-07T01:56:55;14.73;;;6.25;;
31043;SDS011;17710;52.520;13.352;2023-04-07T01:59:21;11.23;;;6.18;;
31043;SDS011;17710;52.520;13.352;2023-04-07T02:01:50;12.02;;;5.97;;
31043;SDS011;17710;52.520;13.352;2023-04-07T02:04:19;10.70;;;5.65;;
31043;SDS011;17710;52.520;13.352;2023-04-07T02:06:50;11.23;;;5.93;;
31043;SDS011;17710;52.520;13.352;2023-04-07T02:09:20;9.80;;;5.68;;
31043;SDS011;17710;52.520;13.352;2023-04-07T02:11:49;12.25;;;5.97;;
31043;SDS011;17710;52.520;13.352;2023-04-07T02:14:18;15.60;;;5.75;;
31043;SDS011;17710;52.520;13.352;2023-04-07T02:16:48;11.32;;;5.53;;
31043;SDS011;17710;52.520;13.352;2023-04-07T02:19:16;9.98;;;5.88;;
31043;SDS011;17710;52.520;13.352;2023-04-07T02:21:44;12.88;;;5.60;;
31043;SDS011;17710;52.520;13.352;2023-04-07T02:24:12;10.05;;;5.50;;
31043;SDS011;17710;52.520;13.352;2023-04-07T02:26:39;11.45;;;5.82;;
31043;SDS011;17710;52.520;13.352;2023-04-07T02:29:05;9.35;;;5.15;;
31043;SDS011;17710;52.520;13.352;2023-04-07T02:31:32;10.85;;;6.15;;
31043;SDS011;17710;52.520;13.352;2023-04-07T02:33:58;12.25;;;6.25;;
31043;SDS011;17710;52.520;13.352;2023-04-07T02:36:24;9.30;;;6.25;;
31043;SDS011;17710;52.520;13.352;2023-04-07T02:38:52;12.85;;;5.93;;
31043;SDS011;17710;52.520;13.352;2023-04-07T02:41:19;12.55;;;5.90;;
31043;SDS011;17710;52.520;13.352;2023-04-07T02:43:46;12.57;;;5.80;;
31043;SDS011;17710;52.520;13.352;2023-04-07T02:46:12;14.23;;;6.28;;
31043;SDS011;17710;52.520;13.352;2023-04-07T02:48:38;10.02;;;6.03;;
31043;SDS011;17710;52.520;13.352;2023-04-07T02:51:05;9.10;;;5.95;;
31043;SDS011;17710;52.520;13.352;2023-04-07T02:53:31;12.55;;;6.15;;
31043;SDS011;17710;52.520;13.352;2023-04-07T02:55:59;10.65;;;6.00;;
31043;SDS011;17710;52.520;13.352;2023-04-07T02:58:25;10.52;;;6.05;;
31043;SDS011;17710;52.520;13.352;2023-04-07T03:00:52;16.92;;;6.03;;
31043;SDS011;17710;52.520;13.352;2023-04-07T03:03:18;10.15;;;6.22;;
31043;SDS011;17710;52.520;13.352;2023-04-07T03:05:44;11.57;;;5.80;;
31043;SDS011;17710;52.520;13.352;2023-04-07T03:08:11;11.55;;;6.28;;
31043;SDS011;17710;52.520;13.352;2023-04-07T03:10:37;12.20;;;7.03;;
31043;SDS011;17710;52.520;13.352;2023-04-07T03:13:05;11.35;;;6.55;;
31043;SDS011;17710;52.520;13.352;2023-04-07T03:15:32;11.88;;;6.28;;
31043;SDS011;17710;52.520;13.352;2023-04-07T03:17:58;11.68;;;5.95;;
31043;SDS011;17710;52.520;13.352;2023-04-07T03:20:25;10.55;;;5.57;;
31043;SDS011;17710;52.520;13.352;2023-04-07T03:22:51;12.48;;;5.80;;
31043;SDS011;17710;52.520;13.352;2023-04-07T03:25:17;16.00;;;6.82;;
31043;SDS011;17710;52.520;13.352;2023-04-07T03:27:44;15.35;;;6.28;;
31043;SDS011;17710;52.520;13.352;2023-04-07T03:30:12;11.18;;;5.70;;
31043;SDS011;17710;52.520;13.352;2023-04-07T03:32:38;10.50;;;6.10;;
31043;SDS011;17710;52.520;13.352;2023-04-07T03:35:05;14.80;;;6.30;;
31043;SDS011;17710;52.520;13.352;2023-04-07T03:37:32;10.50;;;6.05;;
31043;SDS011;17710;52.520;13.352;2023-04-07T03:39:58;10.45;;;6.20;;
31043;SDS011;17710;52.520;13.352;2023-04-07T03:42:25;12.32;;;5.97;;
31043;SDS011;17710;52.520;13.352;2023-04-07T03:44:51;10.68;;;5.95;;
31043;SDS011;17710;52.520;13.352;2023-04-07T03:47:19;13.93;;;6.03;;
31043;SDS011;17710;52.520;13.352;2023-04-07T03:49:46;13.70;;;6.05;;
31043;SDS011;17710;52.520;13.352;2023-04-07T03:52:13;16.48;;;6.90;;
31043;SDS011;17710;52.520;13.352;2023-04-07T03:54:39;11.50;;;6.70;;
31043;SDS011;17710;52.520;13.352;2023-04-07T03:57:06;11.55;;;6.15;;
31043;SDS011;17710;52.520;13.352;2023-04-07T03:59:33;16.35;;;6.38;;
31043;SDS011;17710;52.520;13.352;2023-04-07T04:01:59;12.98;;;6.55;;
31043;SDS011;17710;52.520;13.352;2023-04-07T04:04:27;17.95;;;8.27;;
31043;SDS011;17710;52.520;13.352;2023-04-07T04:06:53;12.65;;;6.20;;
31043;SDS011;17710;52.520;13.352;2023-04-07T04:09:20;12.32;;;6.75;;
31043;SDS011;17710;52.520;13.352;2023-04-07T04:11:46;16.08;;;6.88;;
31043;SDS011;17710;52.520;13.352;2023-04-07T04:14:12;14.38;;;6.80;;
31043;SDS011;17710;52.520;13.352;2023-04-07T04:16:39;15.60;;;6.78;;
31043;SDS011;17710;52.520;13.352;2023-04-07T04:19:06;11.40;;;6.63;;
31043;SDS011;17710;52.520;13.352;2023-04-07T04:21:34;15.43;;;7.38;;
31043;SDS011;17710;52.520;13.352;2023-04-07T04:24:00;10.13;;;6.05;;
31043;SDS011;17710;52.520;13.352;2023-04-07T04:26:27;12.77;;;7.03;;
31043;SDS011;17710;52.520;13.352;2023-04-07T04:28:54;11.63;;;6.90;;
31043;SDS011;17710;52.520;13.352;2023-04-07T04:31:20;14.75;;;7.15;;
31043;SDS011;17710;52.520;13.352;2023-04-07T04:33:47;13.55;;;6.93;;
31043;SDS011;17710;52.520;13.352;2023-04-07T04:36:13;11.57;;;6.60;;
31043;SDS011;17710;52.520;13.352;2023-04-07T04:38:41;13.80;;;6.97;;
31043;SDS011;17710;52.520;13.352;2023-04-07T04:41:07;11.88;;;6.82;;
31043;SDS011;17710;52.520;13.352;2023-04-07T04:43:33;14.32;;;7.28;;
31043;SDS011;17710;52.520;13.352;2023-04-07T04:46:00;14.77;;;6.97;;
31043;SDS011;17710;52.520;13.352;2023-04-07T04:48:26;12.48;;;7.50;;
31043;SDS011;17710;52.520;13.352;2023-04-07T04:50:52;12.65;;;7.00;;
31043;SDS011;17710;52.520;13.352;2023-04-07T04:53:19;18.55;;;8.15;;
31043;SDS011;17710;52.520;13.352;2023-04-07T04:55:46;15.48;;;7.57;;
31043;SDS011;17710;52.520;13.352;2023-04-07T04:58:16;13.15;;;7.75;;
31043;SDS011;17710;52.520;13.352;2023-04-07T05:00:42;12.52;;;6.80;;
31043;SDS011;17710;52.520;13.352;2023-04-07T05:03:09;13.05;;;8.10;;
31043;SDS011;17710;52.520;13.352;2023-04-07T05:05:35;13.40;;;7.55;;
31043;SDS011;17710;52.520;13.352;2023-04-07T05:08:02;15.98;;;7.57;;
31043;SDS011;17710;52.520;13.352;2023-04-07T05:10:28;13.35;;;7.78;;
31043;SDS011;17710;52.520;13.352;2023-04-07T05:12:56;14.15;;;7.30;;
31043;SDS011;17710;52.520;13.352;2023-04-07T05:15:22;12.00;;;7.95;;
31043;SDS011;17710;52.520;13.352;2023-04-07T05:17:48;14.20;;;7.50;;
31043;SDS011;17710;52.520;13.352;2023-04-07T05:20:15;13.40;;;7.35;;
31043;SDS011;17710;52.520;13.352;2023-04-07T05:22:41;11.95;;;7.20;;
31043;SDS011;17710;52.520;13.352;2023-04-07T05:25:08;18.13;;;8.40;;
31043;SDS011;17710;52.520;13.352;2023-04-07T05:27:35;14.85;;;7.50;;
31043;SDS011;17710;52.520;13.352;2023-04-07T05:30:03;17.48;;;7.80;;
31043;SDS011;17710;52.520;13.352;2023-04-07T05:32:30;14.23;;;7.95;;
31043;SDS011;17710;52.520;13.352;2023-04-07T05:34:56;14.48;;;7.93;;
31043;SDS011;17710;52.520;13.352;2023-04-07T05:37:22;14.80;;;7.72;;
31043;SDS011;17710;52.520;13.352;2023-04-07T05:39:49;16.10;;;7.45;;
31043;SDS011;17710;52.520;13.352;2023-04-07T05:42:15;14.82;;;7.82;;
31043;SDS011;17710;52.520;13.352;2023-04-07T05:44:42;15.25;;;8.60;;
31043;SDS011;17710;52.520;13.352;2023-04-07T05:47:09;16.30;;;7.85;;
31043;SDS011;17710;52.520;13.352;2023-04-07T05:49:36;18.77;;;8.45;;
31043;SDS011;17710;52.520;13.352;2023-04-07T05:52:09;14.48;;;8.27;;
31043;SDS011;17710;52.520;13.352;2023-04-07T05:54:36;14.13;;;7.57;;
31043;SDS011;17710;52.520;13.352;2023-04-07T05:57:03;19.48;;;8.70;;
31043;SDS011;17710;52.520;13.352;2023-04-07T05:59:29;17.10;;;8.35;;
31043;SDS011;17710;52.520;13.352;2023-04-07T06:01:56;16.40;;;8.00;;
31043;SDS011;17710;52.520;13.352;2023-04-07T06:04:23;14.82;;;7.80;;
31043;SDS011;17710;52.520;13.352;2023-04-07T06:06:50;20.95;;;8.02;;
31043;SDS011;17710;52.520;13.352;2023-04-07T06:09:19;14.73;;;7.72;;
31043;SDS011;17710;52.520;13.352;2023-04-07T06:11:45;13.43;;;8.05;;
31043;SDS011;17710;52.520;13.352;2023-04-07T06:14:12;14.48;;;7.60;;
31043;SDS011;17710;52.520;13.352;2023-04-07T06:16:38;15.75;;;7.32;;
31043;SDS011;17710;52.520;13.352;2023-04-07T06:19:05;12.73;;;7.78;;
31043;SDS011;17710;52.520;13.352;2023-04-07T06:21:33;18.25;;;7.90;;
31043;SDS011;17710;52.520;13.352;2023-04-07T06:24:00;13.65;;;8.25;;
31043;SDS011;17710;52.520;13.352;2023-04-07T06:26:26;18.13;;;8.00;;
31043;SDS011;17710;52.520;13.352;2023-04-07T06:28:53;15.60;;;7.72;;
31043;SDS011;17710;52.520;13.352;2023-04-07T06:31:19;16.15;;;8.35;;
31043;SDS011;17710;52.520;13.352;2023-04-07T06:33:46;18.00;;;8.25;;
31043;SDS011;17710;52.520;13.352;2023-04-07T06:36:12;16.65;;;8.00;;
31043;SDS011;17710;52.520;13.352;2023-04-07T06:38:40;15.30;;;8.45;;
31043;SDS011;17710;52.520;13.352;2023-04-07T06:41:06;16.58;;;8.05;;
31043;SDS011;17710;52.520;13.352;2023-04-07T06:43:35;15.15;;;8.00;;
31043;SDS011;17710;52.520;13.352;2023-04-07T06:46:02;15.18;;;7.85;;
31043;SDS011;17710;52.520;13.352;2023-04-07T06:48:28;15.38;;;8.07;;
31043;SDS011;17710;52.520;13.352;2023-04-07T06:50:55;19.50;;;9.60;;
31043;SDS011;17710;52.520;13.352;2023-04-07T06:53:21;13.20;;;8.23;;
31043;SDS011;17710;52.520;13.352;2023-04-07T06:55:49;16.25;;;8.70;;
31043;SDS011;17710;52.520;13.352;2023-04-07T06:58:15;15.23;;;8.48;;
31043;SDS011;17710;52.520;13.352;2023-04-07T07:00:42;13.95;;;8.15;;
31043;SDS011;17710;52.520;13.352;2023-04-07T07:03:08;18.38;;;8.35;;
31043;SDS011;17710;52.520;13.352;2023-04-07T07:05:35;17.50;;;8.82;;
31043;SDS011;17710;52.520;13.352;2023-04-07T07:08:01;17.52;;;9.02;;
31043;SDS011;17710;52.520;13.352;2023-04-07T07:10:28;16.02;;;8.80;;
31043;SDS011;17710;52.520;13.352;2023-04-07T07:12:56;15.05;;;8.45;;
31043;SDS011;17710;52.520;13.352;2023-04-07T07:15:22;17.83;;;8.93;;
31043;SDS011;17710;52.520;13.352;2023-04-07T07:17:49;15.68;;;8.73;;
31043;SDS011;17710;52.520;13.352;2023-04-07T07:20:15;16.75;;;8.60;;
31043;SDS011;17710;52.520;13.352;2023-04-07T07:22:42;15.98;;;8.82;;
31043;SDS011;17710;52.520;13.352;2023-04-07T07:25:09;16.17;;;7.90;;
31043;SDS011;17710;52.520;13.352;2023-04-07T07:27:35;13.27;;;7.70;;
31043;SDS011;17710;52.520;13.352;2023-04-07T07:30:03;12.35;;;7.93;;
31043;SDS011;17710;52.520;13.352;2023-04-07T07:32:31;15.38;;;7.75;;
31043;SDS011;17710;52.520;13.352;2023-04-07T07:34:57;15.25;;;7.93;;
31043;SDS011;17710;52.520;13.352;2023-04-07T07:37:24;26.85;;;8.88;;
31043;SDS011;17710;52.520;13.352;2023-04-07T07:39:50;15.88;;;7.18;;
31043;SDS011;17710;52.520;13.352;2023-04-07T07:42:17;14.32;;;6.68;;
31043;SDS011;17710;52.520;13.352;2023-04-07T07:44:43;9.95;;;5.72;;
31043;SDS011;17710;52.520;13.352;2023-04-07T07:47:11;11.50;;;5.50;;
31043;SDS011;17710;52.520;13.352;2023-04-07T07:49:38;10.13;;;5.82;;
31043;SDS011;17710;52.520;13.352;2023-04-07T07:52:05;12.93;;;6.13;;
31043;SDS011;17710;52.520;13.352;2023-04-07T07:54:32;13.05;;;5.53;;
31043;SDS011;17710;52.520;13.352;2023-04-07T07:56:59;11.10;;;5.50;;
31043;SDS011;17710;52.520;13.352;2023-04-07T07:59:27;9.48;;;5.40;;
31043;SDS011;17710;52.520;13.352;2023-04-07T08:01:53;12.45;;;5.18;;
31043;SDS011;17710;52.520;13.352;2023-04-07T08:04:21;11.27;;;4.95;;
31043;SDS011;17710;52.520;13.352;2023-04-07T08:06:48;9.90;;;5.13;;
31043;SDS011;17710;52.520;13.352;2023-04-07T08:09:14;12.30;;;5.53;;
31043;SDS011;17710;52.520;13.352;2023-04-07T08:11:41;9.63;;;5.10;;
31043;SDS011;17710;52.520;13.352;2023-04-07T08:14:07;10.73;;;5.50;;
31043;SDS011;17710;52.520;13.352;2023-04-07T08:16:34;10.02;;;5.10;;
31043;SDS011;17710;52.520;13.352;2023-04-07T08:19:00;8.55;;;4.57;;
31043;SDS011;17710;52.520;13.352;2023-04-07T08:21:28;6.28;;;4.05;;
31043;SDS011;17710;52.520;13.352;2023-04-07T08:23:55;7.72;;;3.97;;
31043;SDS011;17710;52.520;13.352;2023-04-07T08:26:22;8.90;;;3.92;;
31043;SDS011;17710;52.520;13.352;2023-04-07T08:28:49;9.95;;;4.63;;
31043;SDS011;17710;52.520;13.352;2023-04-07T08:31:16;9.82;;;4.30;;
31043;SDS011;17710;52.520;13.352;2023-04-07T08:33:42;8.38;;;4.50;;
31043;SDS011;17710;52.520;13.352;2023-04-07T08:36:09;12.23;;;5.88;;
31043;SDS011;17710;52.520;13.352;2023-04-07T08:38:37;11.05;;;4.57;;
31043;SDS011;17710;52.520;13.352;2023-04-07T08:41:05;8.32;;;4.60;;
31043;SDS011;17710;52.520;13.352;2023-04-07T08:43:42;7.38;;;4.25;;
31043;SDS011;17710;52.520;13.352;2023-04-07T08:46:10;6.55;;;4.10;;
31043;SDS011;17710;52.520;13.352;2023-04-07T08:48:38;9.20;;;4.30;;
31043;SDS011;17710;52.520;13.352;2023-04-07T08:51:09;9.00;;;4.50;;
31043;SDS011;17710;52.520;13.352;2023-04-07T08:53:42;7.60;;;4.03;;
31043;SDS011;17710;52.520;13.352;2023-04-07T08:56:11;11.45;;;4.35;;
31043;SDS011;17710;52.520;13.352;2023-04-07T08:58:39;7.45;;;3.75;;
31043;SDS011;17710;52.520;13.352;2023-04-07T09:01:05;10.15;;;4.20;;
31043;SDS011;17710;52.520;13.352;2023-04-07T09:03:33;6.80;;;3.45;;
31043;SDS011;17710;52.520;13.352;2023-04-07T09:06:00;5.72;;;3.22;;
31043;SDS011;17710;52.520;13.352;2023-04-07T09:08:27;7.53;;;3.67;;
31043;SDS011;17710;52.520;13.352;2023-04-07T09:10:55;8.75;;;3.90;;
31043;SDS011;17710;52.520;13.352;2023-04-07T09:13:22;5.60;;;3.35;;
31043;SDS011;17710;52.520;13.352;2023-04-07T09:15:49;8.23;;;3.17;;
31043;SDS011;17710;52.520;13.352;2023-04-07T09:18:16;7.65;;;3.22;;
31043;SDS011;17710;52.520;13.352;2023-04-07T09:20:56;4.20;;;2.22;;
31043;SDS011;17710;52.520;13.352;2023-04-07T09:23:26;4.40;;;2.90;;
31043;SDS011;17710;52.520;13.352;2023-04-07T09:25:55;4.30;;;2.70;;
31043;SDS011;17710;52.520;13.352;2023-04-07T09:28:23;4.38;;;2.30;;
31043;SDS011;17710;52.520;13.352;2023-04-07T09:30:54;5.50;;;2.58;;
31043;SDS011;17710;52.520;13.352;2023-04-07T09:33:25;3.72;;;2.65;;
31043;SDS011;17710;52.520;13.352;2023-04-07T09:35:53;4.60;;;2.83;;
31043;SDS011;17710;52.520;13.352;2023-04-07T09:38:20;4.03;;;2.83;;
31043;SDS011;17710;52.520;13.352;2023-04-07T09:40:46;4.90;;;3.00;;
31043;SDS011;17710;52.520;13.352;2023-04-07T09:43:15;6.43;;;3.22;;
31043;SDS011;17710;52.520;13.352;2023-04-07T09:45:43;5.47;;;3.40;;
31043;SDS011;17710;52.520;13.352;2023-04-07T09:48:16;4.25;;;2.97;;
31043;SDS011;17710;52.520;13.352;2023-04-07T09:50:44;9.57;;;3.00;;
31043;SDS011;17710;52.520;13.352;2023-04-07T09:53:13;4.82;;;2.25;;
31043;SDS011;17710;52.520;13.352;2023-04-07T09:55:40;5.95;;;2.80;;
31043;SDS011;17710;52.520;13.352;2023-04-07T09:58:07;4.28;;;2.63;;
31043;SDS011;17710;52.520;13.352;2023-04-07T10:00:38;9.43;;;3.67;;
31043;SDS011;17710;52.520;13.352;2023-04-07T10:03:05;5.35;;;3.15;;
31043;SDS011;17710;52.520;13.352;2023-04-07T10:05:33;6.75;;;3.47;;
31043;SDS011;17710;52.520;13.352;2023-04-07T10:08:00;7.47;;;3.38;;
31043;SDS011;17710;52.520;13.352;2023-04-07T10:10:27;6.50;;;3.60;;
31043;SDS011;17710;52.520;13.352;2023-04-07T10:12:55;5.40;;;3.33;;
31043;SDS011;17710;52.520;13.352;2023-04-07T10:15:23;6.93;;;3.00;;
31043;SDS011;17710;52.520;13.352;2023-04-07T10:17:51;5.97;;;3.05;;
31043;SDS011;17710;52.520;13.352;2023-04-07T10:20:20;8.32;;;3.70;;
31043;SDS011;17710;52.520;13.352;2023-04-07T10:22:48;7.03;;;3.10;;
31043;SDS011;17710;52.520;13.352;2023-04-07T10:25:18;8.30;;;3.45;;
31043;SDS011;17710;52.520;13.352;2023-04-07T10:27:48;6.63;;;3.45;;
31043;SDS011;17710;52.520;13.352;2023-04-07T10:30:17;7.82;;;3.45;;
31043;SDS011;17710;52.520;13.352;2023-04-07T10:32:48;5.85;;;3.22;;
31043;SDS011;17710;52.520;13.352;2023-04-07T10:35:17;5.90;;;3.17;;
31043;SDS011;17710;52.520;13.352;2023-04-07T10:40:37;6.53;;;3.10;;
31043;SDS011;17710;52.520;13.352;2023-04-07T10:43:05;5.53;;;2.80;;
31043;SDS011;17710;52.520;13.352;2023-04-07T10:45:51;5.13;;;3.10;;
31043;SDS011;17710;52.520;13.352;2023-04-07T10:48:26;7.15;;;3.55;;
31043;SDS011;17710;52.520;13.352;2023-04-07T10:59:32;7.18;;;3.05;;
31043;SDS011;17710;52.520;13.352;2023-04-07T11:04:57;10.15;;;3.47;;
31043;SDS011;17710;52.520;13.352;2023-04-07T11:10:10;7.20;;;3.22;;
31043;SDS011;17710;52.520;13.352;2023-04-07T11:12:37;5.55;;;2.75;;
31043;SDS011;17710;52.520;13.352;2023-04-07T11:15:15;6.70;;;3.40;;
31043;SDS011;17710;52.520;13.352;2023-04-07T11:17:42;6.68;;;3.45;;
31043;SDS011;17710;52.520;13.352;2023-04-07T11:20:08;6.90;;;3.72;;
31043;SDS011;17710;52.520;13.352;2023-04-07T11:22:35;5.45;;;3.75;;
31043;SDS011;17710;52.520;13.352;2023-04-07T11:25:04;10.45;;;4.15;;
31043;SDS011;17710;52.520;13.352;2023-04-07T11:27:45;6.72;;;4.15;;
31043;SDS011;17710;52.520;13.352;2023-04-07T11:30:12;6.95;;;3.65;;
31043;SDS011;17710;52.520;13.352;2023-04-07T11:32:41;7.55;;;4.43;;
31043;SDS011;17710;52.520;13.352;2023-04-07T11:35:12;7.68;;;3.97;;
31043;SDS011;17710;52.520;13.352;2023-04-07T11:37:39;10.10;;;5.35;;
31043;SDS011;17710;52.520;13.352;2023-04-07T11:40:08;6.35;;;4.35;;
31043;SDS011;17710;52.520;13.352;2023-04-07T11:42:36;8.43;;;4.50;;
31043;SDS011;17710;52.520;13.352;2023-04-07T11:45:03;6.93;;;4.50;;
31043;SDS011;17710;52.520;13.352;2023-04-07T11:47:34;6.45;;;4.43;;
31043;SDS011;17710;52.520;13.352;2023-04-07T11:50:00;7.10;;;4.20;;
31043;SDS011;17710;52.520;13.352;2023-04-07T11:52:27;8.82;;;5.30;;
31043;SDS011;17710;52.520;13.352;2023-04-07T11:54:54;8.20;;;5.32;;
31043;SDS011;17710;52.520;13.352;2023-04-07T11:57:24;8.18;;;5.35;;
31043;SDS011;17710;52.520;13.352;2023-04-07T12:00:04;7.00;;;4.85;;
31043;SDS011;17710;52.520;13.352;2023-04-07T12:02:31;6.65;;;4.90;;
31043;SDS011;17710;52.520;13.352;2023-04-07T12:04:58;7.53;;;4.70;;
31043;SDS011;17710;52.520;13.352;2023-04-07T12:07:25;7.15;;;4.78;;
31043;SDS011;17710;52.520;13.352;2023-04-07T12:09:52;5.72;;;4.35;;
31043;SDS011;17710;52.520;13.352;2023-04-07T12:12:25;6.13;;;4.25;;
31043;SDS011;17710;52.520;13.352;2023-04-07T12:14:54;6.97;;;4.90;;
31043;SDS011;17710;52.520;13.352;2023-04-07T12:17:21;6.68;;;5.15;;
31043;SDS011;17710;52.520;13.352;2023-04-07T12:19:48;7.53;;;5.47;;
31043;SDS011;17710;52.520;13.352;2023-04-07T12:22:15;7.55;;;4.60;;
31043;SDS011;17710;52.520;13.352;2023-04-07T12:24:41;8.20;;;5.18;;
31043;SDS011;17710;52.520;13.352;2023-04-07T12:27:08;8.35;;;5.40;;
31043;SDS011;17710;52.520;13.352;2023-04-07T12:29:36;9.32;;;5.57;;
31043;SDS011;17710;52.520;13.352;2023-04-07T12:32:03;7.30;;;4.80;;
31043;SDS011;17710;52.520;13.352;2023-04-07T12:34:29;6.38;;;4.60;;
31043;SDS011;17710;52.520;13.352;2023-04-07T12:36:56;8.35;;;5.07;;
31043;SDS011;17710;52.520;13.352;2023-04-07T12:39:22;9.48;;;4.88;;
31043;SDS011;17710;52.520;13.352;2023-04-07T12:41:48;8.05;;;3.58;;
31043;SDS011;17710;52.520;13.352;2023-04-07T12:44:17;6.43;;;4.53;;
31043;SDS011;17710;52.520;13.352;2023-04-07T12:46:45;5.38;;;3.90;;
31043;SDS011;17710;52.520;13.352;2023-04-07T12:49:11;6.25;;;3.75;;
31043;SDS011;17710;52.520;13.352;2023-04-07T12:51:38;5.72;;;3.60;;
31043;SDS011;17710;52.520;13.352;2023-04-07T12:54:04;5.68;;;3.80;;
31043;SDS011;17710;52.520;13.352;2023-04-07T12:56:31;5.85;;;3.50;;
31043;SDS011;17710;52.520;13.352;2023-04-07T12:58:57;4.57;;;3.40;;
31043;SDS011;17710;52.520;13.352;2023-04-07T13:01:23;5.70;;;3.08;;
31043;SDS011;17710;52.520;13.352;2023-04-07T13:03:52;5.30;;;3.45;;
31043;SDS011;17710;52.520;13.352;2023-04-07T13:06:18;6.38;;;3.30;;
31043;SDS011;17710;52.520;13.352;2023-04-07T13:08:45;4.72;;;3.22;;
31043;SDS011;17710;52.520;13.352;2023-04-07T13:11:11;6.70;;;3.55;;
31043;SDS011;17710;52.520;13.352;2023-04-07T13:13:37;4.63;;;3.08;;
31043;SDS011;17710;52.520;13.352;2023-04-07T13:16:04;6.78;;;2.80;;
31043;SDS011;17710;52.520;13.352;2023-04-07T13:18:30;4.00;;;2.92;;
31043;SDS011;17710;52.520;13.352;2023-04-07T13:20:58;3.97;;;2.42;;
31043;SDS011;17710;52.520;13.352;2023-04-07T13:23:24;5.22;;;3.70;;
31043;SDS011;17710;52.520;13.352;2023-04-07T13:25:51;5.43;;;3.25;;
31043;SDS011;17710;52.520;13.352;2023-04-07T13:28:17;3.17;;;2.85;;
31043;SDS011;17710;52.520;13.352;2023-04-07T13:30:45;3.15;;;2.70;;
31043;SDS011;17710;52.520;13.352;2023-04-07T13:33:11;5.07;;;2.92;;
31043;SDS011;17710;52.520;13.352;2023-04-07T13:35:38;3.85;;;3.10;;
31043;SDS011;17710;52.520;13.352;2023-04-07T13:38:05;4.63;;;3.10;;
31043;SDS011;17710;52.520;13.352;2023-04-07T13:40:33;4.78;;;3.03;;
31043;SDS011;17710;52.520;13.352;2023-04-07T13:42:59;5.30;;;2.88;;
31043;SDS011;17710;52.520;13.352;2023-04-07T13:45:25;5.93;;;3.50;;
31043;SDS011;17710;52.520;13.352;2023-04-07T13:47:52;6.13;;;3.30;;
31043;SDS011;17710;52.520;13.352;2023-04-07T13:50:19;6.20;;;3.78;;
31043;SDS011;17710;52.520;13.352;2023-04-07T13:52:45;9.70;;;5.30;;
31043;SDS011;17710;52.520;13.352;2023-04-07T13:55:14;4.97;;;3.50;;
31043;SDS011;17710;52.520;13.352;2023-04-07T13:57:44;5.78;;;3.70;;
31043;SDS011;17710;52.520;13.352;2023-04-07T14:00:11;5.63;;;3.33;;
31043;SDS011;17710;52.520;13.352;2023-04-07T14:02:38;5.93;;;3.40;;
31043;SDS011;17710;52.520;13.352;2023-04-07T14:05:05;5.30;;;3.13;;
31043;SDS011;17710;52.520;13.352;2023-04-07T14:07:31;4.97;;;3.33;;
31043;SDS011;17710;52.520;13.352;2023-04-07T14:09:58;6.70;;;4.20;;
31043;SDS011;17710;52.520;13.352;2023-04-07T14:12:26;4.68;;;3.72;;
31043;SDS011;17710;52.520;13.352;2023-04-07T14:14:52;6.97;;;3.75;;
31043;SDS011;17710;52.520;13.352;2023-04-07T14:17:20;6.15;;;3.55;;
31043;SDS011;17710;52.520;13.352;2023-04-07T14:19:47;6.82;;;3.60;;
31043;SDS011;17710;52.520;13.352;2023-04-07T14:22:13;5.32;;;3.45;;
31043;SDS011;17710;52.520;13.352;2023-04-07T14:24:40;5.68;;;3.97;;
31043;SDS011;17710;52.520;13.352;2023-04-07T14:27:06;7.00;;;3.30;;
31043;SDS011;17710;52.520;13.352;2023-04-07T14:29:34;7.20;;;3.75;;
31043;SDS011;17710;52.520;13.352;2023-04-07T14:32:00;6.60;;;3.72;;
31043;SDS011;17710;52.520;13.352;2023-04-07T14:34:27;4.13;;;3.10;;
31043;SDS011;17710;52.520;13.352;2023-04-07T14:36:53;4.90;;;3.20;;
31043;SDS011;17710;52.520;13.352;2023-04-07T14:39:21;4.60;;;3.05;;
31043;SDS011;17710;52.520;13.352;2023-04-07T14:41:48;5.72;;;3.60;;
31043;SDS011;17710;52.520;13.352;2023-04-07T14:44:15;5.50;;;3.47;;
31043;SDS011;17710;52.520;13.352;2023-04-07T14:46:43;4.85;;;3.65;;